Airfield :
LOGIN :

Register | Disclaimer

   EN    FR    IT 

 










Legend :    VFR   Marginal VFR   IFR   Intensive IFR   Very Intensive IFR
Visi :
Ceiling :
>= 8 km
>= 3000ft
5 to 8 km
1000 to 3000 ft
1500m to 5 km
500 to 1000 ft
800 to 1500m
200 to 500 ft
< 800m
< 200 ft
Symbols :   Thunderstorms  Fog  Heavy snow  Heavy precipitations  Wind > 20 kt
SIGMETs :     Misc.  Thunderstorms  Icing  Turbulence  Mountain Waves  Volcanic Ashes






- Airport Elevation : 137 ft


LIPS - Istrana AFB Treviso

CURRENT METAR :
  • 050155Z 00000KT 9999 BKN090 20/19 Q1010 RMK BKN VIS MIN 9999 WIND THR26 00000KT WIND THR08 00000KT BLU

EXPIRED METARs :
  • 050055Z 00000KT 9999 BKN090 20/19 Q1009 RMK BKN VIS MIN 9999 WIND THR26 00000KT WIND THR08 00000KT BLU
  • 042355Z 32003KT 9999 BKN090 20/19 Q1009 RMK BKN VIS MIN 9999 WIND THR26 26005KT WIND THR08 30004KT BLU

TAF TAF LIPS
Valid from the 05 at 00:00 until the 05 at 09:00 UTC


042300Z 0500/0509 34006KT 9999 SCT050
PROB30
TEMPO 0500/0503 5000 RA BR SCT040 BKN100



MET'MAP, your aeronautical weather chart ! - Copyright ORBIFLY December 2007 - Disclaimer

ORBIFLY MET'MAP TEAM :

Programming & Development : Alexandra Zaïnal
Concept & original design : Baudouin d'Aumeries
Assistance for programming : Marc-Olivier Méhu
Technical & hardware support : Manuel Goepfert

Contact : metmap@orbifly.com




SOURCES & CREDITS :

   NOAA